Time;durP1;ratioP1;P1;durP2;ratioP2;P2;SDS_P1;SDS_P2;PMS_P1;PMS_P2;Temp;Humidity;BMP_temperature;BMP_pressure;BME280_temperature;BME280_humidity;BME280_pressure;Samples;Min_cycle;Max_cycle;Signal;HPM_P1;HPM_P2
2021/07/07 00:00:36;;;;;;;4.85;4.35;;;;;;;;;;5023837;28;20017;-59
2021/07/07 00:03:01;;;;;;;6.13;5.28;;;;;;;;;;5029105;28;20465;-59
2021/07/07 00:05:26;;;;;;;10.07;5.10;;;;;;;;;;5033214;28;20033;-59
2021/07/07 00:07:52;;;;;;;6.57;3.70;;;;;;;;;;5035036;28;20038;-59
2021/07/07 00:10:18;;;;;;;13.27;4.65;;;;;;;;;;5032251;28;20484;-59
2021/07/07 00:12:45;;;;;;;5.22;3.17;;;;;;;;;;5038495;28;20020;-59
2021/07/07 00:15:13;;;;;;;6.10;3.80;;;;;;;;;;5038228;28;20033;-59
2021/07/07 00:17:39;;;;;;;7.50;4.32;;;;;;;;;;5034150;28;20024;-59
2021/07/07 00:20:05;;;;;;;5.43;4.18;;;;;;;;;;5031871;28;20405;-58
2021/07/07 00:22:31;;;;;;;13.80;5.68;;;;;;;;;;5030687;28;20033;-58
2021/07/07 00:24:56;;;;;;;5.10;4.30;;;;;;;;;;5031452;28;20028;-58
2021/07/07 00:27:21;;;;;;;7.15;3.70;;;;;;;;;;5029144;28;20018;-58
2021/07/07 00:29:48;;;;;;;6.57;3.42;;;;;;;;;;5034346;28;20222;-59
2021/07/07 00:32:16;;;;;;;5.85;4.10;;;;;;;;;;5036345;28;20047;-59
2021/07/07 00:34:41;;;;;;;5.10;4.60;;;;;;;;;;5032309;28;20021;-59
2021/07/07 00:37:06;;;;;;;7.50;4.45;;;;;;;;;;5037723;28;20033;-59
2021/07/07 00:39:31;;;;;;;6.22;4.22;;;;;;;;;;5034914;28;20025;-59
2021/07/07 00:41:57;;;;;;;6.68;3.55;;;;;;;;;;5035412;28;20022;-59
2021/07/07 00:44:22;;;;;;;4.68;3.42;;;;;;;;;;5033721;28;20432;-59
2021/07/07 00:46:47;;;;;;;6.72;3.83;;;;;;;;;;5034924;28;20028;-59
2021/07/07 00:49:14;;;;;;;5.00;3.85;;;;;;;;;;5042114;28;20043;-59
2021/07/07 00:51:40;;;;;;;13.43;4.97;;;;;;;;;;5035421;28;20021;-59
2021/07/07 00:54:05;;;;;;;4.97;4.45;;;;;;;;;;5037025;28;20075;-59
2021/07/07 00:56:31;;;;;;;6.13;4.28;;;;;;;;;;5033373;28;20391;-59
2021/07/07 00:58:57;;;;;;;5.35;3.92;;;;;;;;;;5033564;28;20079;-59
2021/07/07 01:01:22;;;;;;;7.40;3.15;;;;;;;;;;5038255;28;20538;-59
2021/07/07 01:03:48;;;;;;;4.72;3.33;;;;;;;;;;5038866;28;20033;-59
2021/07/07 01:06:13;;;;;;;9.35;4.80;;;;;;;;;;5037417;28;20052;-59
2021/07/07 01:08:38;;;;;;;9.73;4.25;;;;;;;;;;5037783;28;20033;-59
2021/07/07 01:11:04;;;;;;;8.50;4.88;;;;;;;;;;5032953;28;20029;-59
2021/07/07 01:13:30;;;;;;;5.38;4.35;;;;;;;;;;5037312;28;20082;-59
2021/07/07 01:15:56;;;;;;;8.50;3.90;;;;;;;;;;5038739;28;20021;-59
2021/07/07 01:18:22;;;;;;;4.88;3.58;;;;;;;;;;5039710;28;20059;-60
2021/07/07 01:20:47;;;;;;;7.68;3.63;;;;;;;;;;5036532;28;20025;-60
2021/07/07 01:23:12;;;;;;;6.07;4.05;;;;;;;;;;5035731;28;20032;-60
2021/07/07 01:25:38;;;;;;;4.40;4.00;;;;;;;;;;5036245;28;20570;-60
2021/07/07 01:28:06;;;;;;;9.35;5.63;;;;;;;;;;5035273;28;20055;-61
2021/07/07 01:30:32;;;;;;;6.97;5.50;;;;;;;;;;5032278;28;20485;-60
2021/07/07 01:32:57;;;;;;;8.90;5.28;;;;;;;;;;5037467;28;20028;-60
2021/07/07 01:35:23;;;;;;;8.68;5.00;;;;;;;;;;5034394;28;20017;-60
2021/07/07 01:37:49;;;;;;;5.55;4.22;;;;;;;;;;5029872;28;20160;-61
2021/07/07 01:40:17;;;;;;;6.43;4.47;;;;;;;;;;5036543;28;20036;-60
2021/07/07 01:42:43;;;;;;;7.95;4.88;;;;;;;;;;5032041;28;20032;-60
2021/07/07 01:45:09;;;;;;;5.78;4.55;;;;;;;;;;5035228;28;20024;-60
2021/07/07 01:47:34;;;;;;;5.18;4.57;;;;;;;;;;5036985;28;20053;-60
2021/07/07 01:50:00;;;;;;;5.70;5.18;;;;;;;;;;5040349;28;20106;-60
2021/07/07 01:52:26;;;;;;;6.68;4.82;;;;;;;;;;5034752;28;20093;-60
2021/07/07 01:54:51;;;;;;;6.40;3.97;;;;;;;;;;5036032;28;20440;-60
2021/07/07 01:57:16;;;;;;;6.88;5.30;;;;;;;;;;5034662;28;20031;-60
2021/07/07 01:59:42;;;;;;;6.82;5.70;;;;;;;;;;5037883;28;20543;-60
2021/07/07 02:02:07;;;;;;;7.45;5.20;;;;;;;;;;5036909;28;20103;-60
2021/07/07 02:04:33;;;;;;;5.90;3.92;;;;;;;;;;5032234;28;20021;-61
2021/07/07 02:06:58;;;;;;;9.45;5.82;;;;;;;;;;5033666;28;20049;-60
2021/07/07 02:09:23;;;;;;;11.23;5.07;;;;;;;;;;5034691;28;20057;-60
2021/07/07 02:11:48;;;;;;;13.90;5.82;;;;;;;;;;5033041;28;20017;-60
2021/07/07 02:14:15;;;;;;;5.82;5.25;;;;;;;;;;5035978;28;20056;-60
2021/07/07 02:16:40;;;;;;;8.63;4.63;;;;;;;;;;5037995;28;20045;-60
2021/07/07 02:19:06;;;;;;;5.15;3.90;;;;;;;;;;5037758;28;20129;-60
2021/07/07 02:21:31;;;;;;;6.30;4.72;;;;;;;;;;5041149;28;20476;-60
2021/07/07 02:23:57;;;;;;;7.47;3.80;;;;;;;;;;5033699;28;20032;-60
2021/07/07 02:26:23;;;;;;;8.88;4.95;;;;;;;;;;5033399;28;20034;-60
2021/07/07 02:28:48;;;;;;;4.82;3.88;;;;;;;;;;5034196;28;20236;-60
2021/07/07 02:31:14;;;;;;;7.10;4.25;;;;;;;;;;5033776;28;20048;-60
2021/07/07 02:33:39;;;;;;;6.57;4.65;;;;;;;;;;5031814;28;20112;-60
2021/07/07 02:36:04;;;;;;;6.07;4.50;;;;;;;;;;5030692;28;20030;-60
2021/07/07 02:38:29;;;;;;;7.28;5.55;;;;;;;;;;5024724;28;20025;-60
2021/07/07 02:40:55;;;;;;;8.05;3.38;;;;;;;;;;5027871;28;20032;-60
2021/07/07 02:43:21;;;;;;;11.15;9.98;;;;;;;;;;5034130;28;20468;-60
2021/07/07 02:45:46;;;;;;;9.98;5.40;;;;;;;;;;5031214;28;20028;-60
2021/07/07 02:48:13;;;;;;;7.72;4.40;;;;;;;;;;5028493;28;20040;-61
2021/07/07 02:50:39;;;;;;;6.55;5.40;;;;;;;;;;5036655;28;20025;-60
2021/07/07 02:53:06;;;;;;;13.52;5.22;;;;;;;;;;5035766;28;20061;-60
2021/07/07 02:55:32;;;;;;;8.75;4.90;;;;;;;;;;5034594;28;20021;-60
2021/07/07 02:58:04;;;;;;;7.15;5.05;;;;;;;;;;5031164;28;20099;-60
2021/07/07 03:00:32;;;;;;;6.82;4.35;;;;;;;;;;5032942;28;20057;-60
2021/07/07 03:02:59;;;;;;;18.10;5.50;;;;;;;;;;5039434;28;20047;-60
2021/07/07 03:05:25;;;;;;;14.43;5.15;;;;;;;;;;5029352;28;20029;-61
2021/07/07 03:07:50;;;;;;;8.50;4.20;;;;;;;;;;5035193;28;20466;-60
2021/07/07 03:10:16;;;;;;;7.80;5.03;;;;;;;;;;5032739;28;20026;-60
2021/07/07 03:12:41;;;;;;;4.57;3.90;;;;;;;;;;5032840;28;20025;-60
2021/07/07 03:15:07;;;;;;;5.03;4.47;;;;;;;;;;5031745;28;20097;-60
2021/07/07 03:17:33;;;;;;;10.57;5.07;;;;;;;;;;5033709;28;20059;-60
2021/07/07 03:19:58;;;;;;;7.03;4.40;;;;;;;;;;5036043;28;20040;-60
2021/07/07 03:22:23;;;;;;;8.00;4.72;;;;;;;;;;5034806;28;20349;-60
2021/07/07 03:24:49;;;;;;;5.97;4.45;;;;;;;;;;5038379;28;20021;-60
2021/07/07 03:27:14;;;;;;;11.18;5.18;;;;;;;;;;5034333;28;20100;-60
2021/07/07 03:29:39;;;;;;;6.35;4.80;;;;;;;;;;5032045;28;20392;-60
2021/07/07 03:32:05;;;;;;;6.70;5.18;;;;;;;;;;5036210;28;20028;-60
2021/07/07 03:34:30;;;;;;;7.47;5.18;;;;;;;;;;5037698;28;20044;-60
2021/07/07 03:36:56;;;;;;;5.80;4.88;;;;;;;;;;5027216;28;20108;-60
2021/07/07 03:39:21;;;;;;;6.47;4.45;;;;;;;;;;5036146;28;20555;-60
2021/07/07 03:41:46;;;;;;;6.65;4.65;;;;;;;;;;5033214;28;20013;-60
2021/07/07 03:44:12;;;;;;;5.45;4.22;;;;;;;;;;5033305;28;20607;-60
2021/07/07 03:46:37;;;;;;;10.18;5.15;;;;;;;;;;5037183;28;20024;-60
2021/07/07 03:49:02;;;;;;;11.68;5.25;;;;;;;;;;5035396;28;20014;-61
2021/07/07 03:51:28;;;;;;;5.25;4.05;;;;;;;;;;5031996;28;20028;-60
2021/07/07 03:53:53;;;;;;;6.60;4.82;;;;;;;;;;5032452;28;20025;-60
2021/07/07 03:56:18;;;;;;;12.80;5.28;;;;;;;;;;5036218;28;20495;-60
2021/07/07 03:58:43;;;;;;;11.80;5.00;;;;;;;;;;5034339;28;20029;-60
2021/07/07 04:01:09;;;;;;;6.80;5.00;;;;;;;;;;5034766;28;20124;-60
2021/07/07 04:03:34;;;;;;;8.02;4.63;;;;;;;;;;5033049;28;20472;-60
2021/07/07 04:06:00;;;;;;;9.07;7.07;;;;;;;;;;5034968;28;20116;-60
2021/07/07 04:08:25;;;;;;;9.68;5.40;;;;;;;;;;5037506;28;20045;-60
2021/07/07 04:10:50;;;;;;;9.05;6.07;;;;;;;;;;5036538;28;20029;-60
2021/07/07 04:13:15;;;;;;;6.05;5.53;;;;;;;;;;5035574;28;20075;-61
2021/07/07 04:15:41;;;;;;;4.78;4.10;;;;;;;;;;5035395;28;20113;-60
2021/07/07 04:18:09;;;;;;;8.43;5.55;;;;;;;;;;5039924;28;20108;-60
2021/07/07 04:20:34;;;;;;;6.22;5.10;;;;;;;;;;5034336;28;20028;-61
2021/07/07 04:23:00;;;;;;;11.38;5.05;;;;;;;;;;5034038;28;20041;-60
2021/07/07 04:25:25;;;;;;;7.22;5.22;;;;;;;;;;5039281;28;20024;-60
2021/07/07 04:27:50;;;;;;;8.02;4.72;;;;;;;;;;5035913;28;20033;-61
2021/07/07 04:30:17;;;;;;;4.50;4.10;;;;;;;;;;5040022;28;20090;-61
2021/07/07 04:32:43;;;;;;;4.95;3.45;;;;;;;;;;5036574;28;20108;-61
2021/07/07 04:35:09;;;;;;;8.80;5.20;;;;;;;;;;5034675;28;20108;-60
2021/07/07 04:37:35;;;;;;;9.57;6.43;;;;;;;;;;5036556;28;20014;-60
2021/07/07 04:40:00;;;;;;;23.92;9.20;;;;;;;;;;5034100;28;20099;-61
2021/07/07 04:42:26;;;;;;;12.20;7.72;;;;;;;;;;5039638;28;20024;-61
2021/07/07 04:44:51;;;;;;;12.50;4.97;;;;;;;;;;5038102;28;20032;-61
2021/07/07 04:47:16;;;;;;;7.22;5.30;;;;;;;;;;5037941;28;20730;-60
2021/07/07 04:49:42;;;;;;;6.65;5.47;;;;;;;;;;5039868;28;20028;-61
2021/07/07 04:52:07;;;;;;;10.55;5.93;;;;;;;;;;5032818;28;20100;-61
2021/07/07 04:54:32;;;;;;;6.10;4.47;;;;;;;;;;5035437;28;20483;-61
2021/07/07 04:56:58;;;;;;;11.27;5.68;;;;;;;;;;5030776;28;20022;-61
2021/07/07 04:59:23;;;;;;;10.50;5.18;;;;;;;;;;5037958;28;20059;-61
2021/07/07 05:01:48;;;;;;;5.57;5.05;;;;;;;;;;5040572;28;20021;-61
2021/07/07 05:04:14;;;;;;;10.38;4.70;;;;;;;;;;5035493;28;20024;-62
2021/07/07 05:06:39;;;;;;;8.77;4.88;;;;;;;;;;5036085;28;20765;-62
2021/07/07 05:09:04;;;;;;;7.90;5.07;;;;;;;;;;5034425;28;20138;-61
2021/07/07 05:11:30;;;;;;;17.17;5.25;;;;;;;;;;5037629;28;20028;-62
2021/07/07 05:13:55;;;;;;;10.05;5.85;;;;;;;;;;5036248;28;20536;-62
2021/07/07 05:16:20;;;;;;;5.57;4.57;;;;;;;;;;5033680;28;20060;-61
2021/07/07 05:18:46;;;;;;;7.85;4.57;;;;;;;;;;5035363;28;20025;-62
2021/07/07 05:21:12;;;;;;;23.30;16.58;;;;;;;;;;5036842;28;20105;-60
2021/07/07 05:23:37;;;;;;;31.52;23.30;;;;;;;;;;5031381;28;20026;-61
2021/07/07 05:26:04;;;;;;;26.58;19.38;;;;;;;;;;5026628;28;20539;-61
2021/07/07 05:28:29;;;;;;;14.18;12.70;;;;;;;;;;5039294;28;20025;-61
2021/07/07 05:30:57;;;;;;;13.93;9.20;;;;;;;;;;5032649;28;20037;-61
2021/07/07 05:33:23;;;;;;;13.77;11.13;;;;;;;;;;5034385;28;20022;-61
2021/07/07 05:35:48;;;;;;;11.68;7.65;;;;;;;;;;5035602;28;20041;-62
2021/07/07 05:38:13;;;;;;;12.20;9.20;;;;;;;;;;5039604;28;20017;-61
2021/07/07 05:40:39;;;;;;;11.40;9.23;;;;;;;;;;5038576;28;20179;-61
2021/07/07 05:43:04;;;;;;;16.65;10.18;;;;;;;;;;5032129;28;20116;-61
2021/07/07 05:45:29;;;;;;;13.73;10.02;;;;;;;;;;5034993;28;20553;-61
2021/07/07 05:47:55;;;;;;;13.50;9.02;;;;;;;;;;5035172;28;20397;-61
2021/07/07 05:50:21;;;;;;;11.25;9.57;;;;;;;;;;5035550;28;20101;-61
2021/07/07 05:52:47;;;;;;;10.60;9.25;;;;;;;;;;5035071;28;20017;-60
2021/07/07 05:55:12;;;;;;;9.10;8.07;;;;;;;;;;5034946;28;20032;-61
2021/07/07 05:57:38;;;;;;;13.30;8.95;;;;;;;;;;5036089;28;20028;-61
2021/07/07 06:00:14;;;;;;;16.23;13.25;;;;;;;;;;5037505;28;20050;-61
2021/07/07 06:02:40;;;;;;;13.65;9.15;;;;;;;;;;5036170;28;20045;-61
2021/07/07 06:05:08;;;;;;;16.13;8.90;;;;;;;;;;5040801;28;20085;-62
2021/07/07 06:07:34;;;;;;;17.00;7.18;;;;;;;;;;5031943;28;20053;-61
2021/07/07 06:10:00;;;;;;;15.13;7.97;;;;;;;;;;5033444;28;20028;-61
2021/07/07 06:12:25;;;;;;;10.70;9.75;;;;;;;;;;5033356;28;20025;-61
2021/07/07 06:14:50;;;;;;;9.13;7.72;;;;;;;;;;5048506;28;20017;-62
2021/07/07 06:17:15;;;;;;;13.40;8.63;;;;;;;;;;5031773;28;20028;-62
2021/07/07 06:19:41;;;;;;;9.95;7.90;;;;;;;;;;5032880;28;20026;-61
2021/07/07 06:22:09;;;;;;;12.38;7.10;;;;;;;;;;5032207;28;20021;-61
2021/07/07 06:24:35;;;;;;;13.82;7.82;;;;;;;;;;5033605;28;20024;-61
2021/07/07 06:27:00;;;;;;;12.35;9.10;;;;;;;;;;5033867;28;20024;-61
2021/07/07 06:29:25;;;;;;;16.27;12.85;;;;;;;;;;5032409;28;20029;-61
2021/07/07 06:31:51;;;;;;;16.02;11.60;;;;;;;;;;5034767;28;20468;-61
2021/07/07 06:34:16;;;;;;;17.33;12.10;;;;;;;;;;5028678;28;20107;-66
2021/07/07 06:36:41;;;;;;;91.28;65.60;;;;;;;;;;5029659;28;20052;-66
2021/07/07 06:39:06;;;;;;;67.65;56.78;;;;;;;;;;5030311;28;20128;-67
2021/07/07 06:41:32;;;;;;;45.63;33.22;;;;;;;;;;5031013;28;20025;-67
2021/07/07 06:43:58;;;;;;;25.00;19.00;;;;;;;;;;5031730;28;20141;-67
2021/07/07 06:46:23;;;;;;;10.93;9.82;;;;;;;;;;5027688;28;20029;-67
2021/07/07 06:48:48;;;;;;;15.77;14.27;;;;;;;;;;5031465;28;20064;-67
2021/07/07 06:51:14;;;;;;;8.90;5.97;;;;;;;;;;5031607;28;20063;-67
2021/07/07 06:53:39;;;;;;;7.93;6.55;;;;;;;;;;5034246;28;20024;-67
2021/07/07 06:56:04;;;;;;;10.07;7.20;;;;;;;;;;5029568;28;20047;-67
2021/07/07 06:58:30;;;;;;;11.85;8.18;;;;;;;;;;5031493;28;20440;-67
2021/07/07 07:00:55;;;;;;;11.32;8.98;;;;;;;;;;5037009;28;20024;-66
2021/07/07 07:03:20;;;;;;;10.75;9.55;;;;;;;;;;5032944;28;20554;-66
2021/07/07 07:05:46;;;;;;;13.20;11.43;;;;;;;;;;5033063;28;20080;-67
2021/07/07 07:08:13;;;;;;;19.25;11.02;;;;;;;;;;5031725;28;20542;-66
2021/07/07 07:10:39;;;;;;;15.60;10.57;;;;;;;;;;5030591;28;20511;-67
2021/07/07 07:13:04;;;;;;;14.98;10.80;;;;;;;;;;5030243;28;20025;-67
2021/07/07 07:15:29;;;;;;;11.98;8.38;;;;;;;;;;5037394;28;20029;-67
2021/07/07 07:17:54;;;;;;;13.02;9.50;;;;;;;;;;5029949;28;20576;-64
2021/07/07 07:20:25;;;;;;;17.63;11.55;;;;;;;;;;5029609;28;20029;-65
2021/07/07 07:22:50;;;;;;;11.70;8.35;;;;;;;;;;5030402;28;20032;-64
2021/07/07 07:25:15;;;;;;;14.35;8.93;;;;;;;;;;5031915;28;20029;-64
2021/07/07 07:27:41;;;;;;;11.15;8.90;;;;;;;;;;5033201;28;20183;-64
2021/07/07 07:30:08;;;;;;;24.40;9.30;;;;;;;;;;5036414;28;20690;-64
2021/07/07 07:32:33;;;;;;;20.70;9.70;;;;;;;;;;5037085;28;20148;-64
2021/07/07 07:34:59;;;;;;;17.33;9.23;;;;;;;;;;5031027;28;20108;-64
2021/07/07 07:37:26;;;;;;;5.93;5.20;;;;;;;;;;5032644;28;20029;-64
2021/07/07 07:39:54;;;;;;;7.53;5.85;;;;;;;;;;5030875;28;20048;-64
2021/07/07 07:42:20;;;;;;;5.85;3.42;;;;;;;;;;5029936;28;20413;-64
2021/07/07 07:44:45;;;;;;;13.40;3.45;;;;;;;;;;5029778;28;20021;-64
2021/07/07 07:47:11;;;;;;;9.27;3.03;;;;;;;;;;5034116;28;20068;-65
2021/07/07 07:49:37;;;;;;;8.10;3.47;;;;;;;;;;5033941;28;20388;-64
2021/07/07 07:52:03;;;;;;;18.92;3.13;;;;;;;;;;5029526;28;20706;-64
2021/07/07 07:54:29;;;;;;;4.78;2.42;;;;;;;;;;5028577;28;20425;-65
2021/07/07 07:56:54;;;;;;;5.30;2.35;;;;;;;;;;5033097;28;20021;-64
2021/07/07 07:59:20;;;;;;;20.38;14.52;;;;;;;;;;5034507;28;20023;-65
2021/07/07 08:01:45;;;;;;;6.70;3.80;;;;;;;;;;5035715;28;20392;-64
2021/07/07 08:04:12;;;;;;;8.63;2.70;;;;;;;;;;5035995;28;20076;-66
2021/07/07 08:06:37;;;;;;;5.75;3.75;;;;;;;;;;5036037;28;20124;-59
2021/07/07 08:09:03;;;;;;;5.45;2.58;;;;;;;;;;5033039;28;20112;-59
2021/07/07 08:11:28;;;;;;;5.65;2.47;;;;;;;;;;5032488;28;20392;-59
2021/07/07 08:13:53;;;;;;;6.07;3.20;;;;;;;;;;5032709;28;20480;-59
2021/07/07 08:16:19;;;;;;;6.38;3.97;;;;;;;;;;5030642;28;20084;-59
2021/07/07 08:18:45;;;;;;;14.27;5.05;;;;;;;;;;5032084;28;20099;-59
2021/07/07 08:21:10;;;;;;;4.15;1.63;;;;;;;;;;5031205;28;20476;-59
2021/07/07 08:23:36;;;;;;;4.13;2.05;;;;;;;;;;5032367;28;20057;-60
2021/07/07 08:26:01;;;;;;;5.18;2.15;;;;;;;;;;5036613;28;20036;-60
2021/07/07 08:28:26;;;;;;;3.78;2.10;;;;;;;;;;5030956;28;20400;-60
2021/07/07 08:30:51;;;;;;;3.00;1.95;;;;;;;;;;5034439;28;20083;-60
2021/07/07 08:33:17;;;;;;;5.57;2.63;;;;;;;;;;5032380;28;20134;-60
2021/07/07 08:35:42;;;;;;;6.10;3.80;;;;;;;;;;5033854;28;20063;-60
2021/07/07 08:38:08;;;;;;;5.07;2.05;;;;;;;;;;5035087;28;20030;-59
2021/07/07 08:40:33;;;;;;;2.30;1.65;;;;;;;;;;5035774;28;20555;-60
2021/07/07 08:42:58;;;;;;;8.30;2.72;;;;;;;;;;5027975;28;20022;-60
2021/07/07 08:45:24;;;;;;;6.53;3.65;;;;;;;;;;5034303;28;20117;-60
2021/07/07 08:47:49;;;;;;;18.73;4.25;;;;;;;;;;5035264;28;20032;-60
2021/07/07 08:50:34;;;;;;;18.20;4.90;;;;;;;;;;5030562;28;20458;-60
2021/07/07 08:53:01;;;;;;;5.78;2.80;;;;;;;;;;5034219;28;20773;-60
2021/07/07 08:55:28;;;;;;;10.05;2.83;;;;;;;;;;5030972;28;20096;-60
2021/07/07 08:57:53;;;;;;;11.25;2.83;;;;;;;;;;5035678;28;20071;-59
2021/07/07 09:00:30;;;;;;;6.00;2.30;;;;;;;;;;5036195;28;20057;-59
2021/07/07 09:02:57;;;;;;;18.67;5.53;;;;;;;;;;5031293;28;20102;-60
2021/07/07 09:05:24;;;;;;;3.70;2.45;;;;;;;;;;5037051;28;20041;-60
2021/07/07 09:07:49;;;;;;;4.85;2.58;;;;;;;;;;5037501;28;20519;-59
2021/07/07 09:10:17;;;;;;;6.45;5.60;;;;;;;;;;5037778;28;20041;-60
2021/07/07 09:12:43;;;;;;;7.65;2.90;;;;;;;;;;5035647;28;20025;-59
2021/07/07 09:15:10;;;;;;;4.13;2.92;;;;;;;;;;5034093;28;20510;-60
2021/07/07 09:17:36;;;;;;;6.78;4.15;;;;;;;;;;5035444;28;20018;-60
2021/07/07 09:20:13;;;;;;;3.58;2.92;;;;;;;;;;5035624;28;20029;-59
2021/07/07 09:22:38;;;;;;;6.38;3.35;;;;;;;;;;5038459;28;20025;-60
2021/07/07 09:25:04;;;;;;;6.20;3.78;;;;;;;;;;5035712;28;20083;-60
2021/07/07 09:27:34;;;;;;;5.03;2.40;;;;;;;;;;5039189;28;20021;-60
2021/07/07 09:30:03;;;;;;;4.40;2.47;;;;;;;;;;5033397;28;20137;-60
2021/07/07 09:32:29;;;;;;;3.50;2.10;;;;;;;;;;5036988;28;20021;-60
2021/07/07 09:34:59;;;;;;;8.15;2.75;;;;;;;;;;5035699;28;20135;-60
2021/07/07 09:37:26;;;;;;;6.97;2.73;;;;;;;;;;5034804;28;20489;-60
2021/07/07 09:39:52;;;;;;;3.70;2.58;;;;;;;;;;5037371;28;20526;-59
2021/07/07 09:42:28;;;;;;;2.47;1.92;;;;;;;;;;5038244;28;20595;-60
2021/07/07 09:44:54;;;;;;;4.30;2.25;;;;;;;;;;5035644;28;20036;-60
2021/07/07 09:47:20;;;;;;;5.13;4.00;;;;;;;;;;5031831;28;20469;-60
2021/07/07 09:49:48;;;;;;;4.90;2.22;;;;;;;;;;5034290;28;20488;-59
2021/07/07 09:52:21;;;;;;;6.65;3.85;;;;;;;;;;5032051;28;20028;-60
2021/07/07 09:54:46;;;;;;;9.18;2.63;;;;;;;;;;5036145;28;20016;-60
2021/07/07 09:57:13;;;;;;;3.42;2.50;;;;;;;;;;5036087;28;20025;-60
2021/07/07 09:59:38;;;;;;;2.72;2.03;;;;;;;;;;5038229;28;20025;-60
2021/07/07 10:02:04;;;;;;;4.65;3.47;;;;;;;;;;5032184;28;20025;-60
2021/07/07 10:04:32;;;;;;;6.50;2.95;;;;;;;;;;5032562;28;20013;-60
2021/07/07 10:06:58;;;;;;;3.42;2.65;;;;;;;;;;5036483;28;20040;-60
2021/07/07 10:09:24;;;;;;;9.48;4.07;;;;;;;;;;5031993;28;20460;-60
2021/07/07 10:11:50;;;;;;;3.55;2.72;;;;;;;;;;5034369;28;20081;-60
2021/07/07 10:14:15;;;;;;;6.60;3.63;;;;;;;;;;5036229;28;20036;-60
2021/07/07 10:16:40;;;;;;;4.80;2.88;;;;;;;;;;5038962;28;20036;-59
2021/07/07 10:19:06;;;;;;;5.53;2.60;;;;;;;;;;5036886;28;20117;-60
2021/07/07 10:21:31;;;;;;;5.43;2.50;;;;;;;;;;5038093;28;20055;-60
2021/07/07 10:23:57;;;;;;;5.38;2.00;;;;;;;;;;5032925;28;20046;-60
2021/07/07 10:26:23;;;;;;;7.47;2.40;;;;;;;;;;5032084;28;20060;-60
2021/07/07 10:28:49;;;;;;;8.25;3.45;;;;;;;;;;5028516;28;20025;-60
2021/07/07 10:31:14;;;;;;;4.53;2.45;;;;;;;;;;5033343;28;20024;-60
2021/07/07 10:33:40;;;;;;;6.70;2.63;;;;;;;;;;5035888;28;20033;-61
2021/07/07 10:36:19;;;;;;;3.97;2.58;;;;;;;;;;5035606;28;20029;-60
2021/07/07 10:38:51;;;;;;;8.20;5.25;;;;;;;;;;5032638;28;20164;-60
2021/07/07 10:41:36;;;;;;;13.63;4.80;;;;;;;;;;5035947;28;20013;-60
2021/07/07 10:44:01;;;;;;;5.80;2.95;;;;;;;;;;5032667;28;20021;-60
2021/07/07 10:46:45;;;;;;;10.60;5.32;;;;;;;;;;5034522;28;20039;-60
2021/07/07 10:49:20;;;;;;;5.22;3.60;;;;;;;;;;5035065;28;20017;-60
2021/07/07 10:51:46;;;;;;;6.32;4.28;;;;;;;;;;5029219;28;20483;-60
2021/07/07 10:54:20;;;;;;;6.13;3.85;;;;;;;;;;5036659;28;20641;-60
2021/07/07 10:56:47;;;;;;;7.03;4.72;;;;;;;;;;5039349;28;20017;-60
2021/07/07 10:59:31;;;;;;;7.95;3.78;;;;;;;;;;5035285;28;20261;-60
2021/07/07 11:01:57;;;;;;;5.97;4.97;;;;;;;;;;5031190;28;20112;-60
2021/07/07 11:04:31;;;;;;;13.95;5.70;;;;;;;;;;5033112;28;20100;-60
2021/07/07 11:06:57;;;;;;;7.80;4.88;;;;;;;;;;5037053;28;20068;-60
2021/07/07 11:09:28;;;;;;;9.95;4.28;;;;;;;;;;5033412;28;20511;-60
2021/07/07 11:11:54;;;;;;;9.75;4.32;;;;;;;;;;5026093;28;20128;-60
2021/07/07 11:14:20;;;;;;;8.10;4.22;;;;;;;;;;5029510;28;20477;-60
2021/07/07 11:16:47;;;;;;;5.80;3.85;;;;;;;;;;5028159;28;20022;-60
2021/07/07 11:19:31;;;;;;;10.65;5.45;;;;;;;;;;5034572;28;20036;-60
2021/07/07 11:22:00;;;;;;;25.83;6.60;;;;;;;;;;5032552;28;20018;-60
2021/07/07 11:24:25;;;;;;;8.45;4.45;;;;;;;;;;5029627;28;20100;-60
2021/07/07 11:26:54;;;;;;;6.15;4.50;;;;;;;;;;5035913;28;20100;-60
2021/07/07 11:29:20;;;;;;;11.45;3.25;;;;;;;;;;5030180;28;20031;-60
2021/07/07 11:31:46;;;;;;;10.00;4.20;;;;;;;;;;5029458;28;20032;-60
2021/07/07 11:34:11;;;;;;;9.57;4.28;;;;;;;;;;5032195;28;20013;-60
2021/07/07 11:36:36;;;;;;;5.88;4.47;;;;;;;;;;5033927;28;20021;-60
2021/07/07 11:39:04;;;;;;;8.35;5.22;;;;;;;;;;5035920;28;20104;-60
2021/07/07 11:41:29;;;;;;;8.73;4.38;;;;;;;;;;5029322;28;20034;-60
2021/07/07 11:43:54;;;;;;;5.13;3.10;;;;;;;;;;5034171;28;20083;-60
2021/07/07 11:46:20;;;;;;;7.95;4.55;;;;;;;;;;5034420;28;20061;-60
2021/07/07 11:48:47;;;;;;;7.93;4.47;;;;;;;;;;5031172;28;20032;-60
2021/07/07 11:51:15;;;;;;;4.20;2.83;;;;;;;;;;5034466;28;20053;-60
2021/07/07 11:53:50;;;;;;;5.72;4.32;;;;;;;;;;5033387;28;20025;-60
2021/07/07 11:56:16;;;;;;;17.63;5.60;;;;;;;;;;5033198;28;20489;-41
2021/07/07 11:58:43;;;;;;;8.32;4.38;;;;;;;;;;5031826;28;20151;-42
2021/07/07 12:01:13;;;;;;;6.05;4.78;;;;;;;;;;5034020;28;20075;-39
2021/07/07 12:03:39;;;;;;;16.45;6.28;;;;;;;;;;5030105;28;20025;-40
2021/07/07 12:06:06;;;;;;;10.45;5.43;;;;;;;;;;5031854;28;20112;-40
2021/07/07 12:08:35;;;;;;;12.70;6.72;;;;;;;;;;5034682;28;20049;-39
2021/07/07 12:11:03;;;;;;;7.57;5.40;;;;;;;;;;5034133;28;20029;-42
2021/07/07 12:13:29;;;;;;;6.60;5.13;;;;;;;;;;5032176;28;20085;-42
2021/07/07 12:16:15;;;;;;;10.40;5.68;;;;;;;;;;5033994;28;20060;-40
2021/07/07 12:18:41;;;;;;;9.18;6.40;;;;;;;;;;5031994;28;20316;-41
2021/07/07 12:21:07;;;;;;;6.57;5.88;;;;;;;;;;5031119;28;20500;-41
2021/07/07 12:23:43;;;;;;;12.73;6.82;;;;;;;;;;5030466;28;20029;-40
2021/07/07 12:26:09;;;;;;;11.77;7.07;;;;;;;;;;5030583;28;20124;-41
2021/07/07 12:28:34;;;;;;;9.88;5.13;;;;;;;;;;5029349;28;20022;-39
2021/07/07 12:30:59;;;;;;;7.57;5.55;;;;;;;;;;5034446;28;20036;-40
2021/07/07 12:33:29;;;;;;;11.98;6.10;;;;;;;;;;5033808;28;20017;-39
2021/07/07 12:35:54;;;;;;;8.20;5.25;;;;;;;;;;5034875;28;20483;-42
2021/07/07 12:38:19;;;;;;;7.45;5.07;;;;;;;;;;5036851;28;20068;-41
2021/07/07 12:40:51;;;;;;;9.45;5.70;;;;;;;;;;5039918;28;20036;-44
2021/07/07 12:43:25;;;;;;;7.97;6.10;;;;;;;;;;5037366;28;20024;-42
2021/07/07 12:46:00;;;;;;;8.63;5.85;;;;;;;;;;5043354;28;20024;-41
2021/07/07 12:48:25;;;;;;;5.35;4.85;;;;;;;;;;5032389;28;20032;-41
2021/07/07 12:50:51;;;;;;;9.13;6.20;;;;;;;;;;5036468;28;20029;-40
2021/07/07 12:53:30;;;;;;;8.23;5.30;;;;;;;;;;5051954;28;20064;-41
2021/07/07 12:56:05;;;;;;;13.38;5.75;;;;;;;;;;5037970;28;20020;-40
2021/07/07 12:58:30;;;;;;;14.45;4.80;;;;;;;;;;5031880;28;20013;-41
2021/07/07 13:00:55;;;;;;;9.80;5.82;;;;;;;;;;5036566;28;20261;-42
2021/07/07 13:03:31;;;;;;;12.27;5.38;;;;;;;;;;5035365;28;20061;-41
2021/07/07 13:06:00;;;;;;;10.02;5.53;;;;;;;;;;5037917;28;20045;-41
2021/07/07 13:08:32;;;;;;;4.78;4.20;;;;;;;;;;5040937;28;20053;-42
2021/07/07 13:10:57;;;;;;;10.85;4.25;;;;;;;;;;5035169;28;20033;-41
2021/07/07 13:13:25;;;;;;;12.55;4.93;;;;;;;;;;5036404;28;20679;-41
2021/07/07 13:16:03;;;;;;;6.78;5.05;;;;;;;;;;5036753;28;20455;-41
2021/07/07 13:18:28;;;;;;;13.55;5.72;;;;;;;;;;5037060;28;20025;-42
2021/07/07 13:20:58;;;;;;;6.95;5.60;;;;;;;;;;5034349;28;20028;-43
2021/07/07 13:23:26;;;;;;;6.20;5.25;;;;;;;;;;5037551;28;20119;-40
2021/07/07 13:26:12;;;;;;;6.57;4.75;;;;;;;;;;5037238;28;20029;-41
2021/07/07 13:28:37;;;;;;;10.23;5.25;;;;;;;;;;5035146;28;20595;-40
2021/07/07 13:31:10;;;;;;;6.03;5.43;;;;;;;;;;5035190;28;20029;-42
2021/07/07 13:33:36;;;;;;;10.38;5.47;;;;;;;;;;5036094;28;20169;-42
2021/07/07 13:36:01;;;;;;;5.60;4.00;;;;;;;;;;5036128;28;20077;-41
2021/07/07 13:38:26;;;;;;;8.25;4.72;;;;;;;;;;5027859;28;20013;-41
2021/07/07 13:40:52;;;;;;;5.22;4.57;;;;;;;;;;5031164;28;20030;-45
2021/07/07 13:43:17;;;;;;;13.30;5.70;;;;;;;;;;5037461;28;20028;-40
2021/07/07 13:45:43;;;;;;;10.32;4.28;;;;;;;;;;5034643;28;20630;-42
2021/07/07 13:48:08;;;;;;;5.35;3.80;;;;;;;;;;5033269;28;20529;-43
2021/07/07 13:50:33;;;;;;;6.47;4.13;;;;;;;;;;5032565;28;20536;-40
2021/07/07 13:52:58;;;;;;;6.30;3.92;;;;;;;;;;5033712;28;20029;-40
2021/07/07 13:55:24;;;;;;;7.82;4.03;;;;;;;;;;5034292;28;20455;-41
2021/07/07 13:57:49;;;;;;;7.65;4.18;;;;;;;;;;5034456;28;20025;-40
2021/07/07 14:00:15;;;;;;;7.35;3.97;;;;;;;;;;5029992;28;20492;-40
2021/07/07 14:02:40;;;;;;;4.80;4.30;;;;;;;;;;5032199;28;20108;-41
2021/07/07 14:05:06;;;;;;;9.60;4.95;;;;;;;;;;5035862;28;20047;-40
2021/07/07 14:07:31;;;;;;;8.77;5.07;;;;;;;;;;5037675;28;20071;-42
2021/07/07 14:09:56;;;;;;;5.32;3.53;;;;;;;;;;5034319;28;20498;-41
2021/07/07 14:12:21;;;;;;;7.82;5.40;;;;;;;;;;5032591;28;20037;-41
2021/07/07 14:14:47;;;;;;;16.13;5.57;;;;;;;;;;5036245;28;20648;-42
2021/07/07 14:17:12;;;;;;;4.20;3.30;;;;;;;;;;5035061;28;20021;-41
2021/07/07 14:19:37;;;;;;;9.10;2.47;;;;;;;;;;5034264;28;20480;-44
2021/07/07 14:22:03;;;;;;;7.65;3.65;;;;;;;;;;5036011;28;20047;-40
2021/07/07 14:24:28;;;;;;;5.55;3.63;;;;;;;;;;5035913;28;20473;-39
2021/07/07 14:26:53;;;;;;;6.18;4.13;;;;;;;;;;5036933;28;20067;-42
2021/07/07 14:29:19;;;;;;;5.90;4.13;;;;;;;;;;5034394;28;20028;-41
2021/07/07 14:31:44;;;;;;;4.70;3.85;;;;;;;;;;5035575;28;20279;-42
2021/07/07 14:34:16;;;;;;;3.15;2.85;;;;;;;;;;5038356;28;20104;-39